Time;durP1;ratioP1;P1;durP2;ratioP2;P2;SDS_P1;SDS_P2;PMS_P1;PMS_P2;Temp;Humidity;BMP_temperature;BMP_pressure;BME280_temperature;BME280_humidity;BME280_pressure;Samples;Min_cycle;Max_cycle;Signal;HPM_P1;HPM_P2
2021/07/24 00:01:51;;;;;;;6.20;5.60;;;;;;;14.54;100.00;100859.63;4949204;28;20310;-72
2021/07/24 00:04:19;;;;;;;6.67;5.97;;;;;;;14.48;100.00;100855.31;4930868;29;20244;-72
2021/07/24 00:06:45;;;;;;;5.60;5.10;;;;;;;14.55;100.00;100854.97;4899176;29;20228;-72
2021/07/24 00:09:13;;;;;;;6.00;5.40;;;;;;;14.42;100.00;100853.75;4918744;29;20223;-72
2021/07/24 00:11:41;;;;;;;6.77;5.80;;;;;;;14.50;100.00;100847.63;4910895;29;20234;-72
2021/07/24 00:14:11;;;;;;;7.17;5.63;;;;;;;14.49;100.00;100846.03;4914941;29;20216;-72
2021/07/24 00:16:37;;;;;;;7.87;6.50;;;;;;;14.44;100.00;100854.28;4930092;29;20626;-72
2021/07/24 00:19:07;;;;;;;8.43;6.23;;;;;;;14.27;100.00;100848.47;4916235;29;20199;-72
2021/07/24 00:21:32;;;;;;;6.27;5.67;;;;;;;14.31;100.00;100849.53;4933299;29;20235;-72
2021/07/24 00:24:03;;;;;;;6.70;5.97;;;;;;;14.22;100.00;100844.19;4933804;29;20203;-72
2021/07/24 00:26:28;;;;;;;6.33;5.50;;;;;;;14.24;100.00;100843.59;4914349;29;20232;-72
2021/07/24 00:28:54;;;;;;;6.43;5.83;;;;;;;14.20;100.00;100849.13;4930224;29;20243;-72
2021/07/24 00:31:22;;;;;;;7.00;5.80;;;;;;;14.19;100.00;100844.75;4932168;29;20806;-73
2021/07/24 00:33:52;;;;;;;6.10;5.47;;;;;;;14.11;100.00;100856.34;4933807;29;20234;-72
2021/07/24 00:36:18;;;;;;;7.03;5.43;;;;;;;14.02;100.00;100847.16;4915538;29;20710;-73
2021/07/24 00:38:43;;;;;;;7.67;6.10;;;;;;;14.00;100.00;100841.13;4914455;29;20176;-72
2021/07/24 00:41:36;;;;;;;6.70;5.70;;;;;;;14.12;100.00;100844.28;4942119;29;20294;-72
2021/07/24 00:44:02;;;;;;;6.67;5.90;;;;;;;14.09;100.00;100842.97;4924242;29;20291;-72
2021/07/24 00:46:29;;;;;;;6.60;5.80;;;;;;;14.02;100.00;100839.75;4931371;29;20608;-72
2021/07/24 00:48:57;;;;;;;5.97;5.07;;;;;;;14.02;100.00;100838.97;4917443;29;20195;-73
2021/07/24 00:51:38;;;;;;;7.40;6.10;;;;;;;13.96;100.00;100837.34;4929142;29;20678;-72
2021/07/24 00:54:07;;;;;;;7.07;6.37;;;;;;;13.97;100.00;100830.78;4910386;29;20690;-72
2021/07/24 00:56:37;;;;;;;8.03;6.37;;;;;;;14.06;100.00;100845.47;4912392;29;20216;-72
2021/07/24 00:59:02;;;;;;;7.67;6.30;;;;;;;14.02;100.00;100838.97;4913929;29;20188;-72
2021/07/24 01:01:36;;;;;;;6.77;5.97;;;;;;;13.79;100.00;100839.72;4929348;29;20705;-71
2021/07/24 01:04:03;;;;;;;6.63;5.93;;;;;;;13.87;100.00;100848.09;4917218;29;20267;-71
2021/07/24 01:06:28;;;;;;;7.40;6.23;;;;;;;13.95;100.00;100843.91;4917974;29;20232;-71
2021/07/24 01:09:02;;;;;;;7.20;6.27;;;;;;;13.97;100.00;100837.06;4898434;29;20275;-73
2021/07/24 01:11:28;;;;;;;6.80;6.00;;;;;;;13.68;100.00;100840.09;4921894;29;20228;-71
2021/07/24 01:13:57;;;;;;;6.67;6.00;;;;;;;13.72;100.00;100838.44;4898515;29;20204;-73
2021/07/24 01:16:27;;;;;;;7.40;6.63;;;;;;;13.68;100.00;100838.19;4907120;29;20224;-70
2021/07/24 01:19:04;;;;;;;7.50;6.47;;;;;;;13.80;100.00;100838.59;4929518;29;20192;-72
2021/07/24 01:21:38;;;;;;;6.70;6.07;;;;;;;13.65;100.00;100830.56;4927359;29;20609;-71
2021/07/24 01:24:04;;;;;;;7.80;7.00;;;;;;;13.64;100.00;100833.59;4917236;29;20207;-74
2021/07/24 01:26:36;;;;;;;8.00;7.10;;;;;;;13.62;100.00;100831.13;4920880;29;20239;-74
2021/07/24 01:29:07;;;;;;;6.80;5.80;;;;;;;13.56;100.00;100829.56;4913426;29;20208;-72
2021/07/24 01:31:33;;;;;;;6.47;4.97;;;;;;;13.55;100.00;100832.56;4909716;29;20246;-73
2021/07/24 01:34:02;;;;;;;4.90;4.40;;;;;;;13.51;100.00;100826.88;4932701;29;20777;-74
2021/07/24 01:36:30;;;;;;;4.77;4.27;;;;;;;13.41;100.00;100825.38;4897290;29;20231;-73
2021/07/24 01:38:56;;;;;;;5.37;4.70;;;;;;;13.32;100.00;100816.16;4898366;29;20847;-73
2021/07/24 01:41:21;;;;;;;5.73;4.90;;;;;;;13.31;100.00;100819.97;4902163;29;20228;-73
2021/07/24 01:43:50;;;;;;;5.57;5.07;;;;;;;13.21;100.00;100818.16;4913690;29;20667;-71
2021/07/24 01:46:19;;;;;;;6.93;5.97;;;;;;;13.10;100.00;100815.78;4917650;29;20220;-71
2021/07/24 01:54:41;;;;;;;7.23;5.77;;;;;;;12.95;100.00;100813.19;4937976;29;20312;-71
2021/07/24 01:57:09;;;;;;;6.23;5.37;;;;;;;12.82;100.00;100813.81;4923269;29;20243;-75
2021/07/24 01:59:46;;;;;;;7.23;5.10;;;;;;;12.88;100.00;100801.78;4917227;29;20218;-72
2021/07/24 02:02:17;;;;;;;7.07;5.93;;;;;;;12.88;100.00;100793.59;4911086;29;20685;-72
2021/07/24 02:04:49;;;;;;;8.93;6.50;;;;;;;12.88;100.00;100795.53;4902072;29;20214;-73
2021/07/24 02:07:17;;;;;;;10.10;6.50;;;;;;;12.84;100.00;100789.81;4897999;29;20228;-73
2021/07/24 02:09:48;;;;;;;8.67;6.23;;;;;;;12.83;100.00;100795.53;4898867;29;20195;-72
2021/07/24 02:12:20;;;;;;;10.47;7.07;;;;;;;12.84;100.00;100789.81;4901753;29;20649;-72
2021/07/24 02:14:50;;;;;;;12.33;6.67;;;;;;;12.88;100.00;100777.25;4917218;29;20256;-75
2021/07/24 02:17:30;;;;;;;8.37;6.03;;;;;;;12.96;100.00;100782.06;4926151;29;20219;-73
2021/07/24 02:20:01;;;;;;;7.97;6.50;;;;;;;12.89;100.00;100776.16;4901592;29;20188;-72
2021/07/24 02:22:30;;;;;;;9.10;5.90;;;;;;;12.88;100.00;100771.78;4919984;29;20228;-73
2021/07/24 02:24:57;;;;;;;7.23;6.23;;;;;;;12.87;100.00;100767.41;4920411;29;20266;-72
2021/07/24 02:27:27;;;;;;;8.73;6.40;;;;;;;12.85;100.00;100769.63;4916284;29;20232;-73
2021/07/24 02:29:57;;;;;;;8.93;6.90;;;;;;;12.81;100.00;100771.28;4901635;29;20570;-73
2021/07/24 02:32:30;;;;;;;9.63;7.00;;;;;;;12.85;100.00;100761.44;4919362;29;20227;-73
2021/07/24 02:34:56;;;;;;;9.83;7.47;;;;;;;12.94;100.00;100765.19;4936183;29;20204;-74
2021/07/24 02:37:22;;;;;;;9.37;7.40;;;;;;;12.89;100.00;100754.34;4925521;29;20218;-73
2021/07/24 02:39:49;;;;;;;12.60;7.60;;;;;;;12.89;100.00;100751.63;4901406;29;20199;-72
2021/07/24 02:42:15;;;;;;;9.50;7.77;;;;;;;12.93;100.00;100752.66;4902141;29;20212;-73
2021/07/24 02:44:45;;;;;;;9.10;7.30;;;;;;;12.97;100.00;100751.00;4926178;29;20890;-70
2021/07/24 02:47:10;;;;;;;9.23;7.13;;;;;;;12.99;100.00;100745.25;4908578;29;20223;-71
2021/07/24 02:49:44;;;;;;;8.07;6.80;;;;;;;12.99;100.00;100740.63;4936722;29;20180;-73
2021/07/24 02:52:12;;;;;;;8.50;6.73;;;;;;;12.87;100.00;100733.91;4932303;29;20236;-71
2021/07/24 02:54:38;;;;;;;10.27;6.60;;;;;;;12.86;100.00;100735.81;4916868;29;20695;-71
2021/07/24 02:57:08;;;;;;;9.93;6.77;;;;;;;12.81;100.00;100727.66;4898253;29;20219;-73
2021/07/24 02:59:37;;;;;;;8.00;6.60;;;;;;;12.73;100.00;100725.53;4897688;29;20556;-72
2021/07/24 03:02:02;;;;;;;8.27;6.40;;;;;;;12.66;100.00;100712.53;4903044;29;20298;-75
2021/07/24 03:04:30;;;;;;;9.43;7.23;;;;;;;12.65;100.00;100710.88;4944910;29;20291;-74
2021/07/24 03:06:56;;;;;;;8.57;6.80;;;;;;;12.54;100.00;100715.59;4915263;29;20220;-74
2021/07/24 03:09:24;;;;;;;10.77;7.23;;;;;;;12.67;100.00;100714.13;4915334;29;20180;-73
2021/07/24 03:11:52;;;;;;;10.63;6.97;;;;;;;12.66;100.00;100717.97;4899748;29;20254;-74
2021/07/24 03:14:18;;;;;;;8.60;6.57;;;;;;;12.58;100.00;100715.84;4916100;29;20747;-72
2021/07/24 03:16:49;;;;;;;9.20;7.33;;;;;;;12.64;100.00;100712.00;4916864;29;20255;-73
2021/07/24 03:19:14;;;;;;;13.10;8.87;;;;;;;12.66;100.00;100712.53;4896798;29;20243;-73
2021/07/24 03:21:42;;;;;;;9.07;7.37;;;;;;;12.69;100.00;100710.84;4896636;29;20364;-73
2021/07/24 03:24:10;;;;;;;8.03;6.70;;;;;;;12.68;100.00;100714.66;4933343;29;20247;-73
2021/07/24 03:26:41;;;;;;;11.13;8.03;;;;;;;12.73;100.00;100720.09;4950198;28;20226;-74
2021/07/24 03:29:07;;;;;;;8.83;7.10;;;;;;;12.70;100.00;100712.47;4917624;29;20243;-75
2021/07/24 03:31:35;;;;;;;10.30;7.80;;;;;;;12.77;100.00;100715.69;4915358;29;20224;-73
2021/07/24 03:34:02;;;;;;;10.00;7.70;;;;;;;12.68;100.00;100718.50;4931131;29;20298;-73
2021/07/24 03:36:28;;;;;;;8.23;6.80;;;;;;;12.82;100.00;100718.41;4950059;29;20310;-73
2021/07/24 03:38:56;;;;;;;9.57;7.10;;;;;;;12.75;100.00;100717.88;4915562;29;20176;-73
2021/07/24 03:41:21;;;;;;;7.77;6.63;;;;;;;12.91;100.00;100721.31;4899655;29;20239;-75
2021/07/24 03:43:49;;;;;;;8.23;6.53;;;;;;;13.02;100.00;100714.69;4930931;29;20271;-73
2021/07/24 03:46:15;;;;;;;10.27;7.00;;;;;;;12.91;100.00;100718.59;4915450;29;20295;-74
2021/07/24 03:48:43;;;;;;;8.73;7.23;;;;;;;12.95;100.00;100719.63;4926195;29;20617;-73
2021/07/24 03:51:12;;;;;;;8.20;6.27;;;;;;;13.09;100.00;100721.44;4949947;28;20251;-73
2021/07/24 03:53:41;;;;;;;9.37;6.80;;;;;;;13.07;100.00;100723.63;4912145;29;20272;-73
2021/07/24 03:56:15;;;;;;;7.67;6.50;;;;;;;13.25;100.00;100722.91;4911863;29;20224;-74
2021/07/24 03:58:44;;;;;;;8.13;6.93;;;;;;;13.37;100.00;100734.25;4940617;29;20273;-73
2021/07/24 04:01:12;;;;;;;8.07;6.43;;;;;;;13.34;100.00;100732.09;4949488;28;20353;-73
2021/07/24 04:03:40;;;;;;;7.77;6.50;;;;;;;13.46;100.00;100728.69;4941707;29;20197;-73
2021/07/24 04:06:09;;;;;;;7.77;6.17;;;;;;;13.54;100.00;100722.59;4914897;29;20273;-74
2021/07/24 04:08:35;;;;;;;9.73;6.30;;;;;;;13.65;100.00;100718.66;4938244;29;20802;-72
2021/07/24 04:11:08;;;;;;;6.93;6.20;;;;;;;13.74;100.00;100718.84;4947078;28;20310;-73
2021/07/24 04:13:36;;;;;;;8.50;6.57;;;;;;;13.82;100.00;100712.72;4904523;29;20211;-72
2021/07/24 04:16:04;;;;;;;7.30;6.33;;;;;;;13.37;100.00;100721.44;4897704;29;20610;-73
2021/07/24 04:18:32;;;;;;;6.90;5.67;;;;;;;13.19;100.00;100724.06;4913997;29;20280;-73
2021/07/24 04:21:02;;;;;;;5.50;4.90;;;;;;;13.26;100.00;100730.00;4899500;29;20212;-73
2021/07/24 04:23:28;;;;;;;5.67;4.77;;;;;;;13.37;100.00;100721.44;4934092;29;20188;-73
2021/07/24 04:25:56;;;;;;;5.20;4.70;;;;;;;13.11;100.00;100722.78;4949095;28;20231;-73
2021/07/24 04:28:23;;;;;;;6.07;5.43;;;;;;;13.35;100.00;100728.25;4931434;29;20196;-72
2021/07/24 04:30:51;;;;;;;5.77;5.23;;;;;;;13.26;100.00;100730.00;4915194;29;20224;-72
2021/07/24 04:33:17;;;;;;;8.00;6.23;;;;;;;13.38;100.00;100728.50;4918046;29;20574;-72
2021/07/24 04:35:45;;;;;;;6.93;6.20;;;;;;;13.62;100.00;100723.88;4949498;29;20231;-72
2021/07/24 04:38:19;;;;;;;7.70;6.93;;;;;;;13.50;100.00;100737.13;4933424;29;20536;-72
2021/07/24 04:40:47;;;;;;;8.43;7.07;;;;;;;13.29;100.00;100729.41;4930204;29;20223;-71
2021/07/24 04:43:15;;;;;;;8.97;5.93;;;;;;;13.36;100.00;100732.63;4914432;29;20180;-73
2021/07/24 04:45:43;;;;;;;6.90;5.87;;;;;;;13.39;100.00;100740.22;4899896;29;20373;-72
2021/07/24 04:48:10;;;;;;;6.63;5.57;;;;;;;13.47;100.00;100738.50;4929991;29;20686;-73
2021/07/24 04:50:48;;;;;;;7.00;6.30;;;;;;;13.72;100.00;100740.97;4932604;29;20728;-72
2021/07/24 04:53:15;;;;;;;8.03;6.10;;;;;;;13.95;100.00;100729.19;4933514;29;20236;-72
2021/07/24 04:55:43;;;;;;;7.27;5.47;;;;;;;14.08;100.00;100740.25;4915038;29;20235;-72
2021/07/24 04:58:11;;;;;;;7.33;6.00;;;;;;;14.10;100.00;100732.59;4898877;29;20176;-73
2021/07/24 05:00:43;;;;;;;7.10;5.60;;;;;;;14.33;100.00;100738.00;4946273;28;20219;-71
2021/07/24 05:03:11;;;;;;;6.50;5.47;;;;;;;14.57;100.00;100733.28;4933575;29;20179;-72
2021/07/24 05:05:36;;;;;;;8.10;6.10;;;;;;;14.46;100.00;100740.00;4916260;29;20279;-72
2021/07/24 05:08:06;;;;;;;7.70;5.88;;;;;;;14.36;100.00;100744.81;4913813;29;20184;-73
2021/07/24 05:10:31;;;;;;;6.17;5.57;;;;;;;14.78;100.00;100738.16;4912462;29;20231;-71
2021/07/24 05:13:00;;;;;;;8.57;5.95;;;;;;;14.92;100.00;100740.94;4915901;29;20216;-72
2021/07/24 05:15:27;;;;;;;6.33;5.73;;;;;;;14.85;100.00;100741.31;4913560;29;20279;-72
2021/07/24 05:17:53;;;;;;;7.37;6.00;;;;;;;14.79;100.00;100745.22;4898135;29;20271;-71
2021/07/24 05:20:19;;;;;;;8.20;6.53;;;;;;;14.89;100.00;100746.97;4941418;29;20192;-72
2021/07/24 05:22:44;;;;;;;8.55;6.53;;;;;;;15.20;100.00;100747.03;4916830;29;20263;-72
2021/07/24 05:25:10;;;;;;;8.02;6.47;;;;;;;15.40;100.00;100742.03;4921650;29;20746;-72
2021/07/24 05:27:36;;;;;;;7.43;6.20;;;;;;;15.69;100.00;100748.03;4898096;29;20681;-71
2021/07/24 05:30:02;;;;;;;10.70;6.55;;;;;;;15.97;100.00;100739.53;4906229;29;20176;-72
2021/07/24 05:32:30;;;;;;;7.75;6.43;;;;;;;16.28;100.00;100737.78;4932199;29;20243;-72
2021/07/24 05:34:56;;;;;;;7.38;6.57;;;;;;;16.37;100.00;100734.03;4925800;29;20200;-71
2021/07/24 05:37:21;;;;;;;8.70;6.97;;;;;;;16.30;100.00;100735.53;4913277;29;20729;-72
2021/07/24 05:39:47;;;;;;;9.63;7.28;;;;;;;16.56;100.00;100738.22;4918252;29;20195;-74
2021/07/24 05:42:13;;;;;;;10.07;7.72;;;;;;;16.68;100.00;100730.28;4921213;29;20228;-72
2021/07/24 05:44:38;;;;;;;9.23;7.88;;;;;;;16.82;100.00;100722.00;4929112;29;20219;-72
2021/07/24 05:47:04;;;;;;;11.85;8.68;;;;;;;17.05;100.00;100732.63;4929130;29;20295;-72
2021/07/24 05:49:35;;;;;;;12.43;8.55;;;;;;;17.08;100.00;100723.78;4915278;29;20685;-72
2021/07/24 05:52:00;;;;;;;9.98;7.60;;;;;;;17.15;100.00;100715.94;4921471;29;20247;-71
2021/07/24 05:54:26;;;;;;;12.75;9.27;;;;;;;17.36;100.00;100726.06;4913173;29;20572;-72
2021/07/24 05:56:52;;;;;;;13.82;10.80;;;;;;;17.41;100.00;100713.03;4897574;29;20223;-72
2021/07/24 05:59:20;;;;;;;12.63;9.38;;;;;;;17.68;100.00;100709.28;4929024;29;20236;-73
2021/07/24 06:01:45;;;;;;;11.80;8.80;;;;;;;17.76;100.00;100709.31;4915551;29;20223;-74
2021/07/24 06:04:14;;;;;;;11.18;9.43;;;;;;;17.83;100.00;100702.22;4933749;29;20724;-73
2021/07/24 06:06:39;;;;;;;12.43;8.55;;;;;;;18.00;100.00;100701.47;4916589;29;20228;-73
2021/07/24 06:09:07;;;;;;;12.30;9.25;;;;;;;18.06;100.00;100702.94;4913178;29;20188;-73
2021/07/24 06:11:34;;;;;;;10.77;8.60;;;;;;;18.24;100.00;100695.25;4915681;29;20303;-73
2021/07/24 06:14:01;;;;;;;12.15;8.90;;;;;;;18.16;100.00;100698.78;4913480;29;20208;-73
2021/07/24 06:16:31;;;;;;;11.20;8.93;;;;;;;18.41;100.00;100699.97;4912946;29;20608;-72
2021/07/24 06:19:02;;;;;;;10.63;9.05;;;;;;;18.36;100.00;100692.66;4912977;29;20182;-72
2021/07/24 06:21:28;;;;;;;12.43;9.13;;;;;;;18.66;100.00;100681.53;4925898;29;20231;-73
2021/07/24 06:23:54;;;;;;;15.40;9.40;;;;;;;18.83;100.00;100692.53;4932250;29;20207;-73
2021/07/24 06:26:19;;;;;;;11.93;8.93;;;;;;;18.76;100.00;100681.19;4913050;29;20252;-74
2021/07/24 06:28:49;;;;;;;11.63;9.50;;;;;;;18.68;100.00;100679.25;4913004;29;20180;-73
2021/07/24 06:31:17;;;;;;;12.43;9.82;;;;;;;18.94;100.00;100678.09;4903101;29;20323;-73
2021/07/24 06:33:43;;;;;;;11.13;9.00;;;;;;;18.88;100.00;100678.56;4912768;29;20717;-74
2021/07/24 06:36:11;;;;;;;10.02;8.13;;;;;;;18.86;100.00;100671.78;4918644;29;20224;-74
2021/07/24 06:38:39;;;;;;;9.90;8.15;;;;;;;19.22;100.00;100668.31;4916387;29;20717;-74
2021/07/24 06:41:09;;;;;;;10.55;8.15;;;;;;;19.19;100.00;100666.22;4936993;29;20224;-74
2021/07/24 06:43:35;;;;;;;12.90;8.48;;;;;;;19.55;100.00;100655.56;4916452;29;20234;-73
2021/07/24 06:46:16;;;;;;;9.95;8.23;;;;;;;19.21;100.00;100650.19;4901932;29;20832;-73
2021/07/24 06:48:42;;;;;;;10.13;8.07;;;;;;;19.29;100.00;100641.09;4931808;29;20184;-74
2021/07/24 06:51:08;;;;;;;9.75;7.07;;;;;;;19.64;100.00;100642.56;4931937;29;20648;-74
2021/07/24 06:53:34;;;;;;;10.00;7.93;;;;;;;19.66;100.00;100636.38;4916454;29;20591;-73
2021/07/24 06:55:59;;;;;;;8.40;7.35;;;;;;;19.50;100.00;100641.97;4915581;29;20220;-74
2021/07/24 06:58:25;;;;;;;10.98;7.30;;;;;;;19.89;100.00;100626.72;4931888;29;20184;-73
2021/07/24 07:00:50;;;;;;;9.13;7.03;;;;;;;20.15;100.00;100619.06;4918783;29;20596;-73
2021/07/24 07:03:16;;;;;;;8.15;6.80;;;;;;;20.21;100.00;100621.28;4922836;29;20663;-73
2021/07/24 07:05:42;;;;;;;8.60;6.32;;;;;;;20.49;100.00;100617.66;4930361;28;20651;-73
2021/07/24 07:08:07;;;;;;;9.55;7.05;;;;;;;20.67;100.00;100612.81;4931989;29;20217;-72
2021/07/24 07:10:33;;;;;;;8.55;6.15;;;;;;;20.73;100.00;100612.28;4916221;29;20224;-73
2021/07/24 07:12:58;;;;;;;8.73;6.30;;;;;;;20.87;100.00;100601.72;4932338;29;20208;-73
2021/07/24 07:15:26;;;;;;;8.80;6.78;;;;;;;20.65;100.00;100602.09;4931517;29;20200;-73
2021/07/24 07:17:54;;;;;;;9.80;6.43;;;;;;;20.49;100.00;100606.63;4931575;29;20275;-74
2021/07/24 07:20:22;;;;;;;10.68;7.68;;;;;;;20.35;100.00;100615.53;4915694;29;20231;-73
2021/07/24 07:22:48;;;;;;;13.27;10.95;;;;;;;20.60;100.00;100618.84;4947698;28;20270;-72
2021/07/24 07:25:14;;;;;;;10.48;8.57;;;;;;;21.04;100.00;100601.50;4934731;29;20649;-72
2021/07/24 07:27:43;;;;;;;10.00;6.00;;;;;;;20.96;100.00;100605.19;4915347;29;20255;-74
2021/07/24 07:30:12;;;;;;;5.97;5.43;;;;;;;21.10;100.00;100608.44;4926851;29;20188;-74
2021/07/24 07:32:38;;;;;;;10.32;5.72;;;;;;;21.08;100.00;100596.91;4908905;29;20709;-74
2021/07/24 07:35:04;;;;;;;6.55;5.40;;;;;;;21.28;100.00;100592.13;4915597;29;20240;-73
2021/07/24 07:37:33;;;;;;;7.57;5.38;;;;;;;21.47;100.00;100595.16;4917274;29;20706;-73
2021/07/24 07:39:59;;;;;;;7.22;5.25;;;;;;;21.12;100.00;100582.09;4899638;29;20199;-73
2021/07/24 07:42:27;;;;;;;7.63;5.10;;;;;;;20.98;100.00;100587.13;4920354;29;20229;-74
2021/07/24 07:44:53;;;;;;;5.53;4.68;;;;;;;21.39;100.00;100587.75;4915937;29;20208;-73
2021/07/24 07:47:22;;;;;;;5.47;4.57;;;;;;;21.67;100.00;100580.41;4923309;29;20225;-74
2021/07/24 07:49:47;;;;;;;7.03;4.72;;;;;;;21.67;99.20;100574.88;4929553;29;20184;-74
2021/07/24 07:52:15;;;;;;;7.80;4.82;;;;;;;21.76;97.90;100570.03;4931072;29;20232;-74
2021/07/24 07:54:48;;;;;;;7.75;4.43;;;;;;;21.76;95.79;100570.03;4916104;29;20663;-75
2021/07/24 07:57:17;;;;;;;5.07;4.20;;;;;;;21.99;95.25;100574.69;4936502;29;20218;-73
2021/07/24 07:59:43;;;;;;;7.68;3.90;;;;;;;22.23;92.02;100572.69;4934065;29;20201;-73
2021/07/24 08:02:09;;;;;;;5.25;4.13;;;;;;;22.42;91.40;100568.16;4914982;29;20227;-73
2021/07/24 08:04:36;;;;;;;6.55;4.00;;;;;;;22.19;87.56;100557.97;4916547;29;20200;-73
2021/07/24 08:07:04;;;;;;;4.38;3.95;;;;;;;22.47;87.83;100569.84;4918366;29;20288;-73
2021/07/24 08:09:32;;;;;;;6.50;3.70;;;;;;;22.82;85.79;100569.69;4949762;29;20171;-74
2021/07/24 08:12:00;;;;;;;6.72;3.85;;;;;;;22.50;83.72;100574.69;4908288;29;20235;-73
2021/07/24 08:14:28;;;;;;;5.30;3.90;;;;;;;22.70;79.97;100568.16;4896422;29;20208;-74
2021/07/24 08:16:53;;;;;;;5.28;3.75;;;;;;;22.60;83.12;100558.38;4914376;29;20904;-74
2021/07/24 08:19:21;;;;;;;5.15;3.80;;;;;;;22.84;81.23;100558.25;4949607;29;20238;-74
2021/07/24 08:21:47;;;;;;;5.53;3.90;;;;;;;22.91;82.51;100559.28;4934017;29;20232;-74
2021/07/24 08:24:15;;;;;;;4.93;3.75;;;;;;;22.76;83.29;100561.19;4914827;29;20582;-74
2021/07/24 08:26:41;;;;;;;5.38;4.13;;;;;;;22.82;84.64;100553.06;4893549;29;20928;-74
2021/07/24 08:29:11;;;;;;;4.32;3.72;;;;;;;23.13;81.26;100550.38;4905072;29;20244;-73
2021/07/24 08:31:36;;;;;;;5.47;3.55;;;;;;;23.45;79.85;100557.50;4915485;29;20223;-73
2021/07/24 08:34:05;;;;;;;5.97;3.78;;;;;;;23.47;79.88;100558.75;4902393;29;20287;-77
2021/07/24 08:36:31;;;;;;;11.55;10.27;;;;;;;23.71;77.75;100545.47;4895377;29;20224;-75
2021/07/24 08:38:56;;;;;;;4.97;3.72;;;;;;;23.65;77.71;100546.94;4900365;29;20191;-75
2021/07/24 08:41:22;;;;;;;6.65;4.38;;;;;;;23.63;77.80;100554.81;4907696;29;20225;-74
2021/07/24 08:43:48;;;;;;;4.82;3.92;;;;;;;22.95;78.53;100564.91;4913756;29;20643;-76
2021/07/24 08:46:14;;;;;;;6.40;3.92;;;;;;;23.13;77.54;100555.91;4928829;28;20224;-77
2021/07/24 08:48:40;;;;;;;4.40;3.97;;;;;;;23.41;80.52;100549.09;4896668;29;20191;-76
2021/07/24 08:51:08;;;;;;;5.25;3.53;;;;;;;23.81;77.24;100544.94;4912514;29;20227;-77
2021/07/24 08:53:34;;;;;;;6.15;3.83;;;;;;;23.95;74.33;100547.22;4913219;29;20635;-77
2021/07/24 08:56:04;;;;;;;4.18;3.78;;;;;;;24.22;76.35;100538.69;4912478;29;20216;-76
2021/07/24 08:58:35;;;;;;;6.13;4.30;;;;;;;23.59;75.58;100542.84;4911770;29;20188;-72
2021/07/24 09:01:03;;;;;;;4.95;3.92;;;;;;;23.39;78.54;100545.06;4909909;29;20232;-75
2021/07/24 09:03:32;;;;;;;4.85;4.05;;;;;;;23.69;77.64;100536.72;4896320;29;20730;-74
2021/07/24 09:05:58;;;;;;;4.13;3.58;;;;;;;24.01;75.90;100530.72;4913090;29;20216;-74
2021/07/24 09:08:26;;;;;;;6.38;4.00;;;;;;;23.86;76.25;100544.63;4914764;29;20541;-74
2021/07/24 09:10:57;;;;;;;4.18;3.60;;;;;;;24.24;75.52;100539.13;4908585;29;20627;-74
2021/07/24 09:13:23;;;;;;;4.75;3.60;;;;;;;23.97;73.41;100534.56;4904333;29;20215;-74
2021/07/24 09:15:51;;;;;;;6.07;3.80;;;;;;;24.39;70.28;100537.13;4896825;29;20663;-74
2021/07/24 09:18:17;;;;;;;3.95;3.60;;;;;;;24.31;69.35;100528.22;4913691;29;20646;-75
2021/07/24 09:20:46;;;;;;;4.03;3.50;;;;;;;24.60;71.43;100534.75;4911273;29;20220;-74
2021/07/24 09:23:25;;;;;;;4.07;3.67;;;;;;;24.66;69.34;100516.59;4914697;29;20619;-76
2021/07/24 09:25:51;;;;;;;4.28;3.88;;;;;;;24.89;69.70;100517.41;4910214;29;20239;-74
2021/07/24 09:28:16;;;;;;;4.95;4.07;;;;;;;24.72;70.38;100519.88;4888687;29;20191;-75
2021/07/24 09:30:47;;;;;;;4.15;3.75;;;;;;;24.98;71.52;100513.28;4914082;29;20215;-72
2021/07/24 09:33:14;;;;;;;5.40;3.72;;;;;;;25.38;69.86;100522.69;4930775;29;20225;-73
2021/07/24 09:35:42;;;;;;;4.88;3.72;;;;;;;25.28;65.50;100522.53;4914426;29;20220;-73
2021/07/24 09:38:11;;;;;;;6.03;4.10;;;;;;;25.17;66.10;100533.47;4914447;29;20197;-73
2021/07/24 09:40:40;;;;;;;4.25;3.60;;;;;;;25.30;66.83;100526.53;4927326;28;20227;-73
2021/07/24 09:43:41;;;;;;;6.72;3.72;;;;;;;25.18;65.72;100520.34;4897957;29;20200;-73
2021/07/24 09:46:15;;;;;;;6.05;3.90;;;;;;;25.66;69.59;100512.84;4894395;29;20311;-73
2021/07/24 09:48:45;;;;;;;4.43;4.03;;;;;;;25.76;66.79;100516.94;4917816;29;20630;-73
2021/07/24 09:51:14;;;;;;;4.22;3.83;;;;;;;25.74;64.83;100514.53;4923843;29;20224;-76
2021/07/24 09:53:48;;;;;;;5.28;4.07;;;;;;;25.74;66.02;100519.31;4929731;29;20579;-75
2021/07/24 09:56:18;;;;;;;4.30;3.90;;;;;;;25.38;67.92;100522.69;4914638;29;20234;-73
2021/07/24 09:58:48;;;;;;;6.20;4.32;;;;;;;25.35;67.34;100517.88;4928407;29;20246;-74
2021/07/24 10:01:22;;;;;;;9.90;8.95;;;;;;;25.31;66.63;100503.13;4926325;29;20221;-74
2021/07/24 10:03:51;;;;;;;4.68;4.15;;;;;;;25.49;66.57;100506.97;4910126;29;20183;-74
2021/07/24 10:06:19;;;;;;;5.15;4.45;;;;;;;26.03;68.36;100500.63;4908762;29;20228;-75
2021/07/24 10:08:48;;;;;;;4.65;4.25;;;;;;;25.65;67.75;100502.06;4912782;29;20176;-75
2021/07/24 10:11:16;;;;;;;5.28;4.38;;;;;;;25.81;69.13;100497.94;4912047;29;20223;-74
2021/07/24 10:13:42;;;;;;;5.95;4.03;;;;;;;26.05;65.50;100487.13;4886181;29;20212;-74
2021/07/24 10:16:08;;;;;;;6.28;4.22;;;;;;;25.82;65.78;100495.94;4915506;29;20216;-75
2021/07/24 10:18:34;;;;;;;7.00;4.40;;;;;;;25.73;67.13;100485.09;4915911;29;20187;-75
2021/07/24 10:21:04;;;;;;;5.60;4.70;;;;;;;25.81;67.92;100486.00;4934011;29;20227;-74
2021/07/24 10:23:29;;;;;;;5.70;4.68;;;;;;;26.34;66.27;100480.75;4952496;28;20616;-73
2021/07/24 10:26:12;;;;;;;5.60;5.00;;;;;;;26.19;64.34;100481.75;4918561;29;20227;-75
2021/07/24 10:28:48;;;;;;;4.80;4.40;;;;;;;26.60;66.13;100480.66;4916557;29;20188;-75
2021/07/24 10:31:42;;;;;;;5.18;4.68;;;;;;;26.58;64.51;100471.88;4934575;29;20286;-75
2021/07/24 10:34:11;;;;;;;5.60;4.82;;;;;;;26.46;63.96;100463.75;4949921;29;20671;-75
2021/07/24 10:36:42;;;;;;;5.38;4.88;;;;;;;26.47;63.21;100455.03;4916451;29;20785;-75
2021/07/24 10:39:19;;;;;;;5.53;5.05;;;;;;;27.04;60.80;100463.56;4917129;29;20188;-75
2021/07/24 10:42:14;;;;;;;5.75;5.20;;;;;;;26.65;61.38;100453.22;4943651;29;20610;-78
2021/07/24 10:44:40;;;;;;;5.68;5.13;;;;;;;26.13;63.09;100460.16;4915581;29;20722;-74
2021/07/24 10:47:14;;;;;;;5.60;4.90;;;;;;;26.28;64.39;100456.38;4916165;29;20228;-75
2021/07/24 10:49:46;;;;;;;5.55;5.05;;;;;;;26.24;63.48;100450.75;4919628;29;20201;-75
2021/07/24 10:52:11;;;;;;;5.75;5.10;;;;;;;26.49;63.62;100435.13;4951130;29;20238;-75
2021/07/24 10:55:12;;;;;;;5.63;4.97;;;;;;;26.19;63.50;100431.59;4933047;29;20200;-74
2021/07/24 10:57:46;;;;;;;6.22;5.30;;;;;;;26.98;62.14;100434.44;4918780;29;20216;-75
2021/07/24 11:00:18;;;;;;;6.72;5.55;;;;;;;27.11;60.41;100433.72;4938679;28;20195;-75
2021/07/24 11:02:51;;;;;;;5.80;5.30;;;;;;;27.33;58.25;100432.69;4955771;28;20190;-75
2021/07/24 11:05:24;;;;;;;7.47;6.10;;;;;;;27.67;55.05;100432.13;4948408;28;20685;-75
2021/07/24 11:07:50;;;;;;;6.85;6.22;;;;;;;27.74;54.81;100423.78;4951106;28;20682;-73
2021/07/24 11:10:16;;;;;;;6.72;6.03;;;;;;;27.82;52.63;100425.44;4921399;28;20333;-75
2021/07/24 11:12:41;;;;;;;6.65;5.60;;;;;;;27.91;55.57;100414.69;4923111;29;20211;-74
2021/07/24 11:15:18;;;;;;;5.93;5.32;;;;;;;27.48;56.33;100416.88;4938864;28;20669;-74
2021/07/24 11:17:43;;;;;;;7.00;6.30;;;;;;;27.97;55.50;100418.72;4938881;29;20187;-74
2021/07/24 11:20:09;;;;;;;7.53;5.97;;;;;;;27.91;56.05;100414.69;4949845;29;20546;-74
2021/07/24 11:22:38;;;;;;;6.45;5.95;;;;;;;28.12;53.75;100403.63;4935571;29;20223;-74
2021/07/24 11:25:03;;;;;;;6.53;5.80;;;;;;;28.52;55.90;100407.72;4936595;29;20204;-75
2021/07/24 11:27:33;;;;;;;7.03;6.10;;;;;;;28.63;53.07;100402.97;4954755;28;20231;-75
2021/07/24 11:30:02;;;;;;;6.68;5.93;;;;;;;29.00;49.94;100403.38;4936657;29;20266;-74
2021/07/24 11:32:36;;;;;;;6.20;5.60;;;;;;;28.17;51.96;100397.63;4950529;28;20752;-74